Time;durP1;ratioP1;P1;durP2;ratioP2;P2;SDS_P1;SDS_P2;PMS_P1;PMS_P2;Temp;Humidity;BMP_temperature;BMP_pressure;BME280_temperature;BME280_humidity;BME280_pressure;Samples;Min_cycle;Max_cycle;Signal;HPM_P1;HPM_P2
2024/05/08 00:00:14;;;;;;;8.32;7.43;;;14.80;72.00;;;10.11;100.00;95729.69;5373188;26;20003;-45
2024/05/08 00:02:40;;;;;;;9.80;7.30;;;14.80;71.20;;;10.11;100.00;95731.56;5372320;26;20011;-50
2024/05/08 00:05:07;;;;;;;11.27;6.72;;;14.80;71.20;;;10.04;100.00;95731.78;5372704;26;20026;-49
2024/05/08 00:07:33;;;;;;;8.07;6.53;;;14.80;71.20;;;10.06;100.00;95726.19;5370888;26;20057;-51
2024/05/08 00:09:59;;;;;;;8.73;6.78;;;14.70;71.20;;;10.08;100.00;95726.75;5373000;26;20008;-55
2024/05/08 00:12:25;;;;;;;8.10;5.50;;;14.70;71.20;;;10.05;100.00;95729.91;5371356;26;20011;-49
2024/05/08 00:14:50;;;;;;;7.57;5.65;;;14.70;71.20;;;10.04;100.00;95731.00;5372864;26;20011;-52
2024/05/08 00:17:16;;;;;;;6.20;5.10;;;14.60;71.20;;;10.04;100.00;95723.81;5373038;26;20018;-52
2024/05/08 00:19:42;;;;;;;10.43;5.13;;;14.60;71.10;;;10.05;100.00;95727.25;5370636;26;20022;-52
2024/05/08 00:22:08;;;;;;;5.50;5.00;;;14.70;71.10;;;9.95;100.00;95736.78;5372926;26;20075;-53
2024/05/08 00:24:34;;;;;;;6.15;5.00;;;14.60;71.00;;;9.98;100.00;95730.16;5368444;26;20004;-55
2024/05/08 00:27:00;;;;;;;5.35;4.50;;;14.60;71.00;;;9.99;100.00;95730.94;5372745;26;20527;-55
2024/05/08 00:29:25;;;;;;;9.98;4.68;;;14.60;71.00;;;9.95;100.00;95728.00;5376706;26;20015;-55
2024/05/08 00:31:51;;;;;;;4.97;4.47;;;14.50;70.90;;;9.96;100.00;95737.56;5371591;26;20073;-55
2024/05/08 00:34:17;;;;;;;4.95;4.50;;;14.60;71.00;;;9.95;100.00;95739.44;5372285;26;20452;-53
2024/05/08 00:36:43;;;;;;;6.43;4.70;;;14.50;70.90;;;9.94;100.00;95737.06;5370853;26;20035;-55
2024/05/08 00:39:09;;;;;;;6.20;4.43;;;14.50;70.90;;;9.96;100.00;95738.41;5369969;26;20027;-51
2024/05/08 00:41:38;;;;;;;5.53;4.03;;;14.50;70.90;;;9.94;100.00;95732.53;5372375;26;20015;-51
2024/05/08 00:44:04;;;;;;;4.85;4.35;;;14.50;70.90;;;9.94;100.00;95731.72;5370667;26;20039;-54
2024/05/08 00:46:30;;;;;;;6.10;4.60;;;14.50;70.80;;;9.86;100.00;95726.88;5399971;26;20758;-55
2024/05/08 00:48:57;;;;;;;4.50;4.07;;;14.50;70.80;;;9.86;100.00;95726.88;5398081;26;20003;-55
2024/05/08 00:51:23;;;;;;;4.78;4.30;;;14.50;70.70;;;9.89;100.00;95734.34;5399915;26;20003;-54
2024/05/08 00:53:49;;;;;;;6.15;4.53;;;14.50;70.70;;;9.88;100.00;95728.22;5400377;26;20012;-53
2024/05/08 00:56:17;;;;;;;4.97;4.47;;;14.50;70.70;;;9.90;100.00;95733.28;5370612;26;20359;-50
2024/05/08 00:58:44;;;;;;;6.60;4.20;;;14.50;70.70;;;9.89;100.00;95729.03;5370499;26;20514;-54
2024/05/08 01:01:10;;;;;;;4.60;4.20;;;14.40;70.60;;;9.86;100.00;95727.66;5370098;26;19999;-52
2024/05/08 01:03:35;;;;;;;7.22;4.45;;;14.40;70.60;;;9.86;100.00;95724.22;5372240;26;20072;-51
2024/05/08 01:06:02;;;;;;;5.50;4.63;;;14.40;70.60;;;9.86;100.00;95730.34;5371288;26;20011;-51
2024/05/08 01:08:29;;;;;;;4.78;4.38;;;14.40;70.60;;;9.83;100.00;95733.50;5370344;26;20015;-53
2024/05/08 01:10:54;;;;;;;5.05;4.38;;;14.40;70.60;;;9.81;100.00;95724.16;5371709;26;20467;-55
2024/05/08 01:13:20;;;;;;;6.75;4.55;;;14.40;70.50;;;9.82;100.00;95726.59;5374075;26;20014;-54
2024/05/08 01:15:46;;;;;;;5.35;4.30;;;14.40;70.50;;;9.84;100.00;95724.47;5371407;26;20000;-49
2024/05/08 01:18:13;;;;;;;4.13;3.72;;;14.40;70.50;;;9.84;100.00;95734.28;5371418;26;20003;-51
2024/05/08 01:20:39;;;;;;;5.35;4.30;;;14.40;70.60;;;9.81;100.00;95740.13;5370760;26;20007;-55
2024/05/08 01:23:07;;;;;;;4.43;4.03;;;14.40;70.60;;;9.78;100.00;95738.81;5371832;26;20419;-53
2024/05/08 01:25:34;;;;;;;5.47;4.68;;;14.40;70.60;;;9.78;100.00;95741.47;5374505;26;20077;-53
2024/05/08 01:28:00;;;;;;;6.57;4.47;;;14.30;70.50;;;9.81;100.00;95740.97;5371199;26;20000;-53
2024/05/08 01:30:26;;;;;;;6.22;4.63;;;14.30;71.30;;;9.79;100.00;95745.72;5373489;26;20000;-50
2024/05/08 01:32:52;;;;;;;6.28;4.82;;;14.30;70.50;;;9.83;100.00;95743.34;5396481;26;20076;-54
2024/05/08 01:35:18;;;;;;;5.30;4.55;;;14.30;70.50;;;9.82;100.00;95742.56;5371737;26;20408;-52
2024/05/08 01:37:44;;;;;;;5.32;4.80;;;14.30;70.50;;;9.81;100.00;95743.63;5369969;26;20016;-55
2024/05/08 01:40:13;;;;;;;5.43;4.68;;;14.30;70.60;;;9.79;100.00;95748.38;5371281;26;20061;-50
2024/05/08 01:42:38;;;;;;;5.78;5.05;;;14.30;70.60;;;9.79;100.00;95748.38;5370490;26;20003;-50
2024/05/08 01:45:05;;;;;;;6.80;4.80;;;14.30;70.60;;;9.80;100.00;95749.19;5370872;26;20011;-53
2024/05/08 01:47:31;;;;;;;5.15;4.68;;;14.30;70.60;;;9.81;100.00;95758.75;5371046;26;20014;-52
2024/05/08 01:49:56;;;;;;;5.22;4.72;;;14.30;70.60;;;9.82;100.00;95763.03;5370011;26;20004;-49
2024/05/08 01:52:22;;;;;;;7.20;5.18;;;14.30;70.60;;;9.82;100.00;95755.84;5371622;26;20529;-49
2024/05/08 01:54:48;;;;;;;4.97;4.47;;;14.30;70.60;;;9.79;100.00;95756.38;5373819;26;20349;-50
2024/05/08 01:57:14;;;;;;;5.75;4.60;;;14.40;70.60;;;9.80;100.00;95760.63;5370999;26;20370;-52
2024/05/08 01:59:42;;;;;;;5.60;4.65;;;14.40;70.60;;;9.78;100.00;95764.59;5370938;26;20018;-47
2024/05/08 02:02:07;;;;;;;8.25;4.55;;;14.40;70.50;;;9.76;100.00;95762.19;5370377;26;20012;-49
2024/05/08 02:04:33;;;;;;;5.97;4.53;;;14.40;70.50;;;9.72;100.00;95767.22;5371247;26;20083;-52
2024/05/08 02:06:59;;;;;;;6.30;4.57;;;14.30;70.40;;;9.75;100.00;95760.59;5369411;26;20080;-49
2024/05/08 02:09:25;;;;;;;5.47;4.43;;;14.40;70.50;;;9.78;100.00;95767.25;5370147;26;20014;-55
2024/05/08 02:11:52;;;;;;;5.80;5.05;;;14.40;70.50;;;9.77;100.00;95768.31;5371274;26;19996;-54
2024/05/08 02:14:18;;;;;;;7.35;5.00;;;14.40;70.50;;;9.73;100.00;95763.50;5369509;26;20366;-54
2024/05/08 02:16:46;;;;;;;5.20;4.70;;;14.40;70.50;;;9.73;100.00;95770.69;5371235;26;20007;-53
2024/05/08 02:19:12;;;;;;;4.60;4.18;;;14.40;70.50;;;9.70;100.00;95766.66;5369328;26;20474;-54
2024/05/08 02:21:38;;;;;;;10.13;4.40;;;14.40;70.50;;;9.72;100.00;95767.22;5392792;26;20004;-54
2024/05/08 02:24:04;;;;;;;5.18;4.60;;;14.40;70.50;;;9.71;100.00;95767.47;5369283;26;20014;-50
2024/05/08 02:26:30;;;;;;;5.15;4.25;;;14.30;70.40;;;9.71;100.00;95765.63;5369351;26;20069;-52
2024/05/08 02:28:56;;;;;;;5.30;4.63;;;14.30;71.20;;;9.71;100.00;95765.63;5370563;26;20007;-50
2024/05/08 02:31:22;;;;;;;5.40;4.72;;;14.40;70.50;;;9.71;100.00;95773.59;5369346;26;20046;-53
2024/05/08 02:33:47;;;;;;;5.13;4.65;;;14.30;70.40;;;9.70;100.00;95763.22;5370884;26;20004;-54
2024/05/08 02:36:13;;;;;;;6.07;4.38;;;14.30;70.40;;;9.66;100.00;95772.75;5371009;26;20485;-51
2024/05/08 02:38:39;;;;;;;4.75;4.13;;;14.30;70.40;;;9.65;100.00;95771.97;5368021;26;20017;-49
2024/05/08 02:41:05;;;;;;;6.30;4.60;;;14.30;70.40;;;9.64;100.00;95766.88;5370598;26;20462;-46
2024/05/08 02:43:31;;;;;;;5.63;5.03;;;14.30;70.40;;;9.65;100.00;95776.44;5367814;26;20534;-46
2024/05/08 02:45:56;;;;;;;4.97;4.28;;;14.30;70.40;;;9.65;100.00;95763.97;5370687;26;20000;-49
2024/05/08 02:48:22;;;;;;;5.07;4.57;;;14.30;70.40;;;9.64;100.00;95764.22;5368818;26;20000;-52
2024/05/08 02:50:48;;;;;;;6.95;4.72;;;14.30;70.40;;;9.65;100.00;95763.97;5370786;26;20004;-50
2024/05/08 02:53:14;;;;;;;5.00;4.38;;;14.30;70.50;;;9.63;100.00;95771.41;5370390;26;20007;-53
2024/05/08 02:55:41;;;;;;;5.25;4.53;;;14.30;70.50;;;9.63;100.00;95767.94;5369264;26;20008;-52
2024/05/08 02:58:10;;;;;;;5.25;4.60;;;14.30;70.50;;;9.60;100.00;95768.44;5367006;26;20491;-51
2024/05/08 03:00:36;;;;;;;5.22;4.72;;;14.30;70.50;;;9.62;100.00;95771.63;5362251;26;20000;-50
2024/05/08 03:03:05;;;;;;;5.50;4.65;;;14.30;70.40;;;9.60;100.00;95774.56;5370258;26;20455;-53
2024/05/08 03:05:31;;;;;;;7.75;4.30;;;14.30;70.50;;;9.61;100.00;95778.03;5370405;26;20019;-49
2024/05/08 03:07:57;;;;;;;5.20;4.47;;;14.30;70.40;;;9.58;100.00;95774.00;5367742;26;20000;-47
2024/05/08 03:10:23;;;;;;;5.85;4.75;;;14.30;70.40;;;9.57;100.00;95780.41;5369943;26;20457;-50
2024/05/08 03:12:49;;;;;;;4.90;4.40;;;14.30;70.40;;;9.54;100.00;95774.78;5368752;26;20069;-47
2024/05/08 03:15:15;;;;;;;5.47;4.95;;;14.30;70.40;;;9.55;100.00;95781.69;5370064;26;20004;-49
2024/05/08 03:17:40;;;;;;;5.85;5.25;;;14.20;70.30;;;9.55;100.00;95773.72;5369385;26;20004;-45
2024/05/08 03:20:07;;;;;;;6.10;5.45;;;14.20;70.30;;;9.55;100.00;95781.69;5369214;26;20007;-51
2024/05/08 03:22:33;;;;;;;5.38;4.63;;;14.20;70.30;;;9.52;100.00;95776.88;5372558;26;20050;-49
2024/05/08 03:24:59;;;;;;;6.38;5.18;;;14.20;70.30;;;9.49;100.00;95781.66;5371822;26;20008;-47
2024/05/08 03:27:24;;;;;;;6.60;5.28;;;14.20;70.20;;;9.50;100.00;95785.91;5372786;26;20018;-47
2024/05/08 03:29:50;;;;;;;7.97;5.30;;;14.20;70.30;;;9.51;100.00;95789.38;5371206;26;20343;-47
2024/05/08 03:32:16;;;;;;;8.35;6.50;;;14.20;70.20;;;9.50;100.00;95793.09;5371043;26;20019;-49
2024/05/08 03:34:43;;;;;;;9.15;5.20;;;14.20;70.20;;;9.47;100.00;95802.38;5373662;26;20003;-48
2024/05/08 03:37:09;;;;;;;7.28;5.75;;;14.10;70.20;;;9.49;100.00;95802.13;5371486;26;20077;-49
2024/05/08 03:39:37;;;;;;;7.05;5.55;;;14.10;70.20;;;9.53;100.00;95807.72;5365391;26;19999;-49
2024/05/08 03:42:04;;;;;;;13.32;6.00;;;14.10;70.20;;;9.52;100.00;95801.63;5371659;26;20043;-51
2024/05/08 03:44:30;;;;;;;11.57;6.03;;;14.10;70.20;;;9.47;100.00;95797.06;5372184;26;20016;-48
2024/05/08 03:46:56;;;;;;;10.85;6.15;;;14.10;70.20;;;9.49;100.00;95808.25;5373218;26;20031;-49
2024/05/08 03:49:22;;;;;;;8.05;5.68;;;14.10;70.20;;;9.50;100.00;95815.19;5372334;26;20004;-51
2024/05/08 03:51:48;;;;;;;8.35;6.25;;;14.10;70.20;;;9.52;100.00;95816.75;5371761;26;20014;-47
2024/05/08 03:54:13;;;;;;;11.63;6.13;;;14.10;70.10;;;9.49;100.00;95816.25;5372943;26;20003;-51
2024/05/08 03:56:45;;;;;;;6.97;5.88;;;14.20;70.20;;;9.50;100.00;95825.00;5370395;26;20063;-50
2024/05/08 03:59:11;;;;;;;7.95;5.80;;;14.20;70.20;;;9.50;100.00;95819.69;5367748;26;19995;-50
2024/05/08 04:01:42;;;;;;;7.05;5.60;;;14.10;70.00;;;9.45;100.00;95825.75;5372650;26;20019;-50
2024/05/08 04:04:09;;;;;;;6.53;5.80;;;14.20;70.10;;;9.39;100.00;95825.94;5367021;26;20011;-51
2024/05/08 04:06:38;;;;;;;6.13;5.53;;;14.10;70.00;;;9.39;100.00;95833.94;5367197;26;19999;-52
2024/05/08 04:09:06;;;;;;;6.18;5.57;;;14.10;69.90;;;9.40;100.00;95831.03;5368126;26;20011;-53
2024/05/08 04:11:32;;;;;;;6.28;5.63;;;14.00;69.80;;;9.43;100.00;95837.69;5372871;26;20000;-54
2024/05/08 04:13:58;;;;;;;7.60;5.90;;;14.10;69.80;;;9.41;100.00;95842.47;5372185;26;20023;-53
2024/05/08 04:16:24;;;;;;;6.30;5.70;;;14.00;69.80;;;9.42;100.00;95841.41;5373312;26;20012;-53
2024/05/08 04:18:49;;;;;;;7.97;6.50;;;14.00;69.80;;;9.40;100.00;95841.66;5371093;26;20016;-47
2024/05/08 04:21:15;;;;;;;7.95;6.05;;;14.00;69.80;;;9.39;100.00;95850.69;5372788;26;20012;-52
2024/05/08 04:23:41;;;;;;;9.30;5.72;;;14.00;69.80;;;9.41;100.00;95850.44;5373327;26;20080;-48
2024/05/08 04:26:09;;;;;;;7.68;5.55;;;14.00;69.80;;;9.40;100.00;95854.13;5371918;26;20007;-51
2024/05/08 04:28:35;;;;;;;7.40;5.90;;;14.00;69.70;;;9.40;100.00;95854.97;5372821;26;20053;-46
2024/05/08 04:31:01;;;;;;;7.90;5.97;;;14.00;70.50;;;9.39;100.00;95856.00;5371565;26;20015;-52
2024/05/08 04:33:26;;;;;;;5.60;5.10;;;14.00;69.70;;;9.38;100.00;95859.72;5371153;26;20022;-51
2024/05/08 04:35:52;;;;;;;13.40;5.22;;;14.00;69.70;;;9.30;100.00;95856.69;5372426;26;20008;-49
2024/05/08 04:38:18;;;;;;;5.50;4.97;;;14.00;69.60;;;9.33;100.00;95864.16;5371248;26;20047;-49
2024/05/08 04:40:44;;;;;;;6.55;4.63;;;14.00;69.50;;;9.33;100.00;95864.97;5372748;26;20076;-49
2024/05/08 04:43:13;;;;;;;6.32;4.50;;;14.00;69.50;;;9.31;100.00;95863.59;5369726;26;20544;-49
2024/05/08 04:45:39;;;;;;;6.05;4.60;;;14.00;69.40;;;9.33;100.00;95864.97;5372423;26;20732;-50
2024/05/08 04:48:06;;;;;;;5.35;4.85;;;14.00;69.40;;;9.36;100.00;95876.97;5372547;26;20439;-48
2024/05/08 04:50:32;;;;;;;5.47;4.95;;;14.00;69.30;;;9.36;100.00;95876.97;5370559;26;20000;-48
2024/05/08 04:52:58;;;;;;;5.15;4.35;;;14.00;69.30;;;9.36;100.00;95879.63;5372577;26;20000;-52
2024/05/08 04:55:23;;;;;;;5.18;4.68;;;14.00;69.20;;;9.36;100.00;95883.06;5399244;26;20014;-47
2024/05/08 04:57:51;;;;;;;5.63;4.70;;;14.00;69.20;;;9.37;100.00;95884.72;5372567;26;20008;-48
2024/05/08 05:00:17;;;;;;;6.97;4.78;;;14.00;69.10;;;9.39;100.00;95881.78;5372127;26;20004;-49
2024/05/08 05:02:42;;;;;;;5.25;4.22;;;14.00;69.00;;;9.39;100.00;95884.44;5369376;26;20014;-46
2024/05/08 05:05:09;;;;;;;5.15;4.43;;;14.00;69.00;;;9.39;100.00;95892.41;5376975;26;20347;-49
2024/05/08 05:07:35;;;;;;;6.47;4.90;;;14.00;69.00;;;9.32;100.00;95887.28;5370666;26;20051;-48
2024/05/08 05:10:01;;;;;;;4.95;4.30;;;14.10;69.00;;;9.37;100.00;95892.69;5398873;26;20498;-52
2024/05/08 05:12:27;;;;;;;5.50;4.78;;;14.10;68.90;;;9.39;100.00;95895.06;5370967;26;19999;-48
2024/05/08 05:14:53;;;;;;;5.22;4.55;;;14.10;68.80;;;9.42;100.00;95900.69;5371644;26;20695;-48
2024/05/08 05:17:19;;;;;;;8.13;5.18;;;14.10;68.70;;;9.44;100.00;95897.81;5372074;26;20003;-49
2024/05/08 05:19:44;;;;;;;4.50;4.00;;;14.20;68.70;;;9.44;100.00;95903.13;5370357;26;20000;-53
2024/05/08 05:22:10;;;;;;;5.13;4.60;;;14.20;68.60;;;9.45;100.00;95904.72;5372060;26;20380;-52
2024/05/08 05:24:36;;;;;;;5.47;4.72;;;14.20;68.50;;;9.43;100.00;95912.97;5371116;26;20319;-51
2024/05/08 05:27:02;;;;;;;6.25;4.55;;;14.20;68.40;;;9.45;100.00;95910.03;5371881;26;20007;-50
2024/05/08 05:29:28;;;;;;;6.32;5.40;;;14.30;68.30;;;9.48;100.00;95909.53;5372012;26;20004;-48
2024/05/08 05:34:38;;;;;;;7.70;5.05;;;14.30;68.20;;;9.55;100.00;95918.13;5371702;26;20428;-49
2024/05/08 05:37:04;;;;;;;6.10;5.15;;;14.40;68.20;;;9.60;100.00;95914.72;5370285;26;20016;-49
2024/05/08 05:39:30;;;;;;;5.32;4.70;;;14.50;68.20;;;9.60;100.00;95923.50;5370946;26;20044;-48
2024/05/08 05:47:25;;;;;;;7.68;5.28;;;14.90;67.60;;;9.87;100.00;95920.03;5298412;27;20188;-52
2024/05/08 05:49:50;;;;;;;5.65;5.15;;;15.00;67.20;;;10.01;100.00;95923.13;5279388;26;20006;-51
2024/05/08 05:52:16;;;;;;;6.60;5.55;;;15.30;67.00;;;10.20;100.00;95927.81;5288975;27;20013;-51
2024/05/08 05:54:42;;;;;;;4.93;4.53;;;15.50;66.70;;;10.37;100.00;95927.72;5288414;27;20005;-49
2024/05/08 05:57:08;;;;;;;5.38;4.88;;;15.70;66.40;;;10.57;100.00;95934.25;5285032;27;20065;-51
2024/05/08 05:59:34;;;;;;;8.60;5.18;;;15.90;66.00;;;10.67;100.00;95929.00;5292837;27;20080;-51
2024/05/08 06:01:59;;;;;;;6.20;5.38;;;16.10;65.70;;;10.80;100.00;95933.06;5277653;27;20012;-49
2024/05/08 06:04:25;;;;;;;5.65;5.13;;;16.30;65.20;;;10.87;100.00;95934.47;5280063;27;20619;-53
2024/05/08 06:06:51;;;;;;;6.35;5.75;;;16.40;64.70;;;10.96;100.00;95936.63;5290553;27;20041;-54
2024/05/08 06:09:17;;;;;;;4.97;4.55;;;16.50;64.20;;;11.16;100.00;95941.28;5288421;26;20022;-54
2024/05/08 06:11:43;;;;;;;5.47;4.97;;;16.60;64.10;;;11.24;100.00;95938.09;5277125;27;20475;-49
2024/05/08 06:14:09;;;;;;;6.10;5.50;;;16.70;64.00;;;11.33;100.00;95941.88;5289879;27;20005;-50
2024/05/08 06:16:34;;;;;;;6.03;4.93;;;16.80;63.60;;;11.41;100.00;95940.59;5287542;26;20002;-54
2024/05/08 06:19:00;;;;;;;6.20;5.40;;;16.90;63.30;;;11.29;100.00;95946.16;5288142;27;20802;-53
2024/05/08 06:21:26;;;;;;;7.18;5.38;;;17.00;63.10;;;11.28;99.61;95944.53;5287799;27;20001;-53
2024/05/08 06:23:52;;;;;;;7.35;5.95;;;17.00;62.60;;;11.32;98.45;95953.63;5291469;27;20384;-51
2024/05/08 06:26:18;;;;;;;6.10;5.30;;;17.00;62.20;;;11.29;98.22;95951.47;5288519;26;20083;-52
2024/05/08 06:28:44;;;;;;;6.75;6.05;;;17.00;61.90;;;11.21;97.62;95965.28;5290535;27;20005;-51
2024/05/08 06:31:09;;;;;;;6.50;5.78;;;17.00;61.60;;;11.12;97.70;95964.97;5293982;27;20550;-53
2024/05/08 06:33:40;;;;;;;6.57;5.72;;;16.90;61.20;;;11.18;98.20;95971.94;5296847;27;20009;-50
2024/05/08 06:36:07;;;;;;;6.00;5.40;;;16.90;61.20;;;11.20;97.54;95975.16;5267868;26;20496;-49
2024/05/08 06:38:33;;;;;;;6.50;5.55;;;16.90;61.10;;;11.18;97.68;95974.59;5284914;27;20001;-52
2024/05/08 06:41:00;;;;;;;6.25;5.57;;;16.80;61.00;;;11.27;98.34;95975.72;5301018;26;20005;-49
2024/05/08 06:43:25;;;;;;;6.43;5.82;;;16.80;60.90;;;11.37;98.36;95985.63;5287374;26;20084;-50
2024/05/08 06:45:51;;;;;;;6.43;5.70;;;16.90;61.00;;;11.43;97.50;95984.59;5290310;26;20005;-51
2024/05/08 06:48:17;;;;;;;7.63;6.60;;;16.90;60.90;;;11.41;97.36;95985.94;5272778;27;20020;-52
2024/05/08 06:50:43;;;;;;;6.53;5.90;;;17.00;60.70;;;11.43;97.02;95984.59;5305109;26;20037;-55
2024/05/08 06:53:09;;;;;;;10.90;5.95;;;17.00;60.50;;;11.49;95.59;95988.91;5268003;27;20012;-55
2024/05/08 06:55:36;;;;;;;6.57;5.57;;;17.00;60.30;;;11.45;95.33;95982.47;5275118;27;20360;-51
2024/05/08 06:58:02;;;;;;;6.38;5.75;;;17.10;60.10;;;11.38;95.01;95991.78;5289074;27;20013;-51
2024/05/08 07:00:28;;;;;;;7.28;6.25;;;17.20;60.00;;;11.50;95.72;95997.69;5309425;26;20018;-50
2024/05/08 07:02:58;;;;;;;6.50;5.80;;;17.20;59.90;;;11.49;93.36;95996.09;5288123;27;20020;-53
2024/05/08 07:05:24;;;;;;;6.93;6.22;;;17.20;59.80;;;11.55;94.82;95995.06;5272603;27;20352;-52
2024/05/08 07:07:51;;;;;;;8.68;5.75;;;17.30;59.70;;;11.60;93.04;96000.44;5273972;27;20016;-52
2024/05/08 07:10:18;;;;;;;8.30;6.05;;;17.30;59.50;;;11.60;91.54;96005.78;5279705;26;20006;-49
2024/05/08 07:12:44;;;;;;;7.40;6.20;;;17.30;59.40;;;11.53;92.91;96010.50;5294798;26;20014;-49
2024/05/08 07:15:10;;;;;;;8.32;6.70;;;17.30;59.20;;;11.55;93.80;96011.88;5276227;27;20103;-55
2024/05/08 07:17:36;;;;;;;7.28;6.47;;;17.30;59.20;;;11.64;93.47;96014.84;5290513;27;20016;-52
2024/05/08 07:20:02;;;;;;;8.10;5.95;;;17.30;59.10;;;11.69;93.63;96020.22;5277995;27;20002;-52
2024/05/08 07:22:28;;;;;;;8.10;6.38;;;17.30;59.20;;;11.71;91.41;96022.63;5278178;27;19997;-53
2024/05/08 07:24:53;;;;;;;7.28;6.15;;;17.30;59.00;;;11.66;90.60;96025.25;5292245;26;20012;-51
2024/05/08 07:27:19;;;;;;;7.10;6.40;;;17.40;59.00;;;11.64;90.32;96030.06;5276297;27;20369;-53
2024/05/08 07:29:45;;;;;;;10.18;7.00;;;17.30;58.60;;;11.56;89.64;96026.84;5288008;26;20745;-54
2024/05/08 07:32:11;;;;;;;7.47;6.38;;;17.30;58.40;;;11.73;91.35;96028.50;5279151;27;20001;-53
2024/05/08 07:34:37;;;;;;;7.22;6.28;;;17.30;58.40;;;11.73;91.59;96033.84;5279290;27;20005;-49
2024/05/08 07:37:03;;;;;;;7.47;6.38;;;17.30;58.50;;;11.68;88.67;96031.94;5286975;27;20009;-52
2024/05/08 07:39:29;;;;;;;8.88;7.38;;;17.30;58.30;;;11.76;91.15;96036.00;5299257;26;20033;-52
2024/05/08 07:41:54;;;;;;;8.10;6.88;;;17.40;58.30;;;11.73;89.72;96031.16;5275365;26;20006;-49
2024/05/08 07:44:20;;;;;;;7.85;6.55;;;17.40;58.30;;;11.81;90.34;96044.81;5278828;27;20489;-52
2024/05/08 07:46:46;;;;;;;8.35;6.47;;;17.50;58.30;;;11.76;88.70;96034.13;5270141;27;20013;-49
2024/05/08 07:49:12;;;;;;;7.30;6.40;;;17.60;58.00;;;11.91;88.82;96040.59;5275703;27;20056;-51
2024/05/08 07:51:38;;;;;;;9.75;7.13;;;17.70;58.00;;;11.94;87.65;96040.06;5281696;27;20009;-53
2024/05/08 07:54:04;;;;;;;7.53;6.75;;;17.80;57.60;;;12.06;87.56;96039.84;5269267;27;20026;-49
2024/05/08 07:56:34;;;;;;;7.35;6.43;;;17.90;57.30;;;12.26;87.27;96032.72;5278858;27;20002;-49
2024/05/08 07:59:00;;;;;;;6.85;6.13;;;18.10;57.20;;;12.22;85.54;96034.31;5295979;26;20016;-50
2024/05/08 08:01:26;;;;;;;8.52;7.50;;;18.30;56.80;;;12.43;86.24;96037.81;5281812;27;20046;-51
2024/05/08 08:03:52;;;;;;;9.30;7.22;;;18.40;56.50;;;12.57;84.98;96031.97;5279986;27;20024;-52
2024/05/08 08:06:18;;;;;;;8.82;6.28;;;18.60;56.40;;;12.54;85.16;96035.97;5303046;26;20050;-51
2024/05/08 08:08:43;;;;;;;7.45;6.63;;;18.70;56.00;;;12.56;83.93;96041.03;5272796;26;20038;-53
2024/05/08 08:11:09;;;;;;;7.47;6.63;;;18.80;55.60;;;12.60;82.07;96034.09;5288970;27;20778;-49
2024/05/08 08:13:35;;;;;;;6.97;6.25;;;18.90;55.30;;;12.54;80.23;96033.28;5290754;26;20353;-52
2024/05/08 08:16:01;;;;;;;9.60;6.63;;;19.00;54.70;;;12.58;79.66;96033.56;5276314;26;20455;-52
2024/05/08 08:18:27;;;;;;;7.05;6.35;;;19.10;54.40;;;12.59;78.49;96035.94;5286620;27;20010;-55
2024/05/08 08:20:53;;;;;;;6.90;6.20;;;19.10;54.00;;;12.84;80.08;96042.38;5278193;26;20002;-52
2024/05/08 08:23:19;;;;;;;6.97;6.28;;;19.30;53.80;;;12.97;78.68;96039.16;5275067;27;20001;-52
2024/05/08 08:25:45;;;;;;;8.63;6.40;;;19.40;53.60;;;12.97;78.15;96041.84;5302059;26;20005;-52
2024/05/08 08:28:16;;;;;;;8.18;6.32;;;19.60;53.10;;;13.15;78.73;96049.31;5303028;26;20388;-49
2024/05/08 08:30:41;;;;;;;6.82;6.13;;;19.80;52.90;;;13.14;76.33;96049.59;5298916;26;20373;-54
2024/05/08 08:33:07;;;;;;;7.57;6.22;;;20.00;52.40;;;13.29;77.13;96043.47;5268757;27;20006;-51
2024/05/08 08:35:36;;;;;;;8.20;6.18;;;20.20;52.30;;;13.47;76.75;96045.53;5273071;27;20144;-51
2024/05/08 08:38:01;;;;;;;9.05;5.75;;;20.40;51.70;;;13.88;76.14;96042.75;5282350;27;20045;-53
2024/05/08 08:40:27;;;;;;;6.10;5.55;;;20.60;51.80;;;14.12;74.68;96048.28;5302992;26;20001;-52
2024/05/08 08:42:55;;;;;;;5.68;5.18;;;20.90;51.70;;;14.03;70.75;96041.88;5293166;26;20461;-51
2024/05/08 08:45:22;;;;;;;6.30;5.00;;;21.10;50.70;;;14.26;73.40;96045.81;5285307;27;20078;-50
2024/05/08 08:47:51;;;;;;;7.40;6.22;;;21.40;50.70;;;14.34;72.08;96051.38;5302930;26;20348;-50
2024/05/08 08:50:17;;;;;;;5.90;5.30;;;21.60;50.30;;;14.29;71.38;96042.56;5284392;26;20015;-55
2024/05/08 08:52:51;;;;;;;5.72;4.88;;;21.70;50.10;;;14.68;70.39;96041.81;5273966;26;20010;-50
2024/05/08 08:55:17;;;;;;;5.90;5.28;;;21.90;49.60;;;14.95;69.04;96046.72;5295652;26;20581;-50
2024/05/08 08:57:47;;;;;;;5.45;4.88;;;22.00;49.40;;;15.09;69.13;96046.88;5277477;27;20001;-49
2024/05/08 09:00:21;;;;;;;6.53;5.30;;;22.30;49.00;;;14.93;67.06;96046.19;5302686;26;20009;-55
2024/05/08 09:03:05;;;;;;;6.60;6.00;;;22.30;48.60;;;15.30;67.28;96050.16;5286338;26;20028;-56
2024/05/08 09:05:33;;;;;;;6.10;5.50;;;22.50;48.40;;;15.48;66.12;96038.69;5269515;27;20010;-52
2024/05/08 09:08:00;;;;;;;7.05;5.57;;;22.80;48.00;;;15.71;66.68;96047.91;5288735;27;20430;-52
2024/05/08 09:10:27;;;;;;;6.13;5.53;;;23.30;47.50;;;16.05;66.59;96039.72;5275546;26;20001;-57
2024/05/08 09:12:59;;;;;;;6.03;5.43;;;23.60;47.00;;;16.17;62.68;96037.41;5298601;26;20047;-53
2024/05/08 09:15:29;;;;;;;6.82;6.13;;;23.70;46.40;;;15.73;63.45;96041.16;5279224;26;20461;-57
2024/05/08 09:17:56;;;;;;;5.95;5.35;;;23.90;45.20;;;16.12;62.86;96042.03;5275610;27;20009;-55
2024/05/08 09:20:22;;;;;;;6.20;5.60;;;23.90;45.10;;;16.31;61.79;96042.84;5274471;27;20005;-53
2024/05/08 09:22:51;;;;;;;6.03;5.45;;;24.00;45.30;;;16.56;58.86;96038.22;5273532;27;20016;-55
2024/05/08 09:25:17;;;;;;;7.40;6.05;;;24.10;44.90;;;16.49;60.50;96046.66;5289402;27;20012;-56
2024/05/08 09:27:43;;;;;;;7.40;5.00;;;24.10;44.70;;;16.66;61.69;96054.19;5285696;27;21197;-53
2024/05/08 09:30:11;;;;;;;6.05;5.55;;;24.10;44.50;;;16.15;60.55;96054.91;5279097;27;20002;-54
2024/05/08 09:32:38;;;;;;;6.13;5.53;;;24.10;44.00;;;16.33;60.60;96045.28;5288412;26;20002;-52
2024/05/08 09:35:10;;;;;;;6.20;5.60;;;24.30;43.90;;;16.68;59.86;96046.66;5280515;27;20482;-52
2024/05/08 09:37:39;;;;;;;7.10;5.50;;;24.50;43.50;;;16.84;59.10;96050.72;5291232;27;20037;-50
2024/05/08 09:40:14;;;;;;;6.07;5.47;;;24.50;43.50;;;16.81;58.73;96045.94;5282675;27;20060;-50
2024/05/08 09:42:42;;;;;;;5.78;5.18;;;24.30;43.10;;;16.82;58.00;96050.22;5320053;26;20091;-51
2024/05/08 09:45:09;;;;;;;6.13;5.53;;;24.00;43.30;;;16.83;58.65;96049.13;5290820;26;20053;-50
2024/05/08 09:47:51;;;;;;;5.68;5.15;;;23.80;43.60;;;16.71;57.37;96048.75;5282490;26;20005;-52
2024/05/08 09:50:19;;;;;;;7.70;5.28;;;23.50;43.50;;;16.67;59.34;96055.78;5283620;27;20020;-49
2024/05/08 09:52:54;;;;;;;5.95;5.18;;;23.40;44.00;;;16.63;60.38;96054.78;5290427;27;20459;-51
2024/05/08 09:55:32;;;;;;;6.80;5.50;;;23.20;44.10;;;16.63;59.24;96060.16;5291616;26;20480;-49
2024/05/08 09:58:02;;;;;;;6.15;5.55;;;23.20;44.10;;;16.40;61.32;96061.84;5290267;26;20036;-50
2024/05/08 10:00:31;;;;;;;6.55;5.95;;;23.10;44.20;;;16.38;60.29;96050.56;5286643;26;20079;-56
2024/05/08 10:02:58;;;;;;;6.20;5.60;;;23.00;44.30;;;16.39;60.29;96055.66;5323578;26;20482;-51
2024/05/08 10:05:27;;;;;;;5.88;5.30;;;22.90;44.20;;;16.40;58.99;96054.56;5286531;27;20002;-52
2024/05/08 10:08:04;;;;;;;7.32;5.72;;;22.90;44.20;;;16.46;59.47;96057.97;5296251;26;20012;-53
2024/05/08 10:10:34;;;;;;;6.45;5.78;;;23.00;44.30;;;16.52;59.65;96056.03;5287599;26;20006;-51
2024/05/08 10:13:33;;;;;;;6.93;5.40;;;23.10;44.30;;;16.53;61.05;96061.09;5293346;26;20017;-52
2024/05/08 10:16:00;;;;;;;6.05;5.45;;;23.20;44.50;;;16.53;61.47;96058.41;5265809;27;20464;-53
2024/05/08 10:18:44;;;;;;;6.45;5.65;;;23.30;44.40;;;16.68;61.23;96059.31;5287913;26;20342;-52
2024/05/08 10:21:14;;;;;;;6.53;5.82;;;23.50;44.40;;;16.80;61.89;96057.00;5286188;27;20017;-51
2024/05/08 10:23:54;;;;;;;9.48;6.30;;;23.70;44.30;;;16.91;60.28;96063.81;5288644;27;20005;-50